sensor_id;sensor_type;location;lat;lon;timestamp;P1;durP1;ratioP1;P2;durP2;ratioP2
1505;SDS011;744;51.436;7.356;2023-06-04T00:02:19;4.90;;;2.00;;
1505;SDS011;744;51.436;7.356;2023-06-04T00:04:46;2.10;;;1.90;;
1505;SDS011;744;51.436;7.356;2023-06-04T00:07:14;2.73;;;1.50;;
1505;SDS011;744;51.436;7.356;2023-06-04T00:09:41;2.90;;;2.17;;
1505;SDS011;744;51.436;7.356;2023-06-04T00:12:08;2.13;;;1.80;;
1505;SDS011;744;51.436;7.356;2023-06-04T00:14:35;3.20;;;1.70;;
1505;SDS011;744;51.436;7.356;2023-06-04T00:17:01;4.00;;;1.73;;
1505;SDS011;744;51.436;7.356;2023-06-04T00:19:28;1.70;;;1.57;;
1505;SDS011;744;51.436;7.356;2023-06-04T00:21:55;1.43;;;1.33;;
1505;SDS011;744;51.436;7.356;2023-06-04T00:24:22;2.03;;;1.30;;
1505;SDS011;744;51.436;7.356;2023-06-04T00:26:49;1.53;;;1.40;;
1505;SDS011;744;51.436;7.356;2023-06-04T00:29:16;3.00;;;2.00;;
1505;SDS011;744;51.436;7.356;2023-06-04T00:31:42;2.90;;;2.00;;
1505;SDS011;744;51.436;7.356;2023-06-04T00:34:10;3.60;;;2.20;;
1505;SDS011;744;51.436;7.356;2023-06-04T00:36:39;2.80;;;1.70;;
1505;SDS011;744;51.436;7.356;2023-06-04T00:39:06;1.57;;;1.47;;
1505;SDS011;744;51.436;7.356;2023-06-04T00:41:33;1.83;;;1.50;;
1505;SDS011;744;51.436;7.356;2023-06-04T00:44:00;1.67;;;1.57;;
1505;SDS011;744;51.436;7.356;2023-06-04T00:46:28;3.30;;;2.13;;
1505;SDS011;744;51.436;7.356;2023-06-04T00:48:55;2.00;;;1.80;;
1505;SDS011;744;51.436;7.356;2023-06-04T00:51:22;4.17;;;2.00;;
1505;SDS011;744;51.436;7.356;2023-06-04T00:53:49;2.13;;;1.93;;
1505;SDS011;744;51.436;7.356;2023-06-04T00:56:17;2.33;;;2.13;;
1505;SDS011;744;51.436;7.356;2023-06-04T00:58:45;3.43;;;2.33;;
1505;SDS011;744;51.436;7.356;2023-06-04T01:01:59;7.67;;;3.10;;
1505;SDS011;744;51.436;7.356;2023-06-04T01:04:09;4.37;;;2.90;;
1505;SDS011;744;51.436;7.356;2023-06-04T01:06:45;2.57;;;2.37;;
1505;SDS011;744;51.436;7.356;2023-06-04T01:09:17;5.03;;;2.33;;
1505;SDS011;744;51.436;7.356;2023-06-04T01:11:44;3.10;;;2.47;;
1505;SDS011;744;51.436;7.356;2023-06-04T01:14:11;4.70;;;2.83;;
1505;SDS011;744;51.436;7.356;2023-06-04T01:16:49;7.10;;;3.20;;
1505;SDS011;744;51.436;7.356;2023-06-04T01:22:36;4.17;;;2.77;;
1505;SDS011;744;51.436;7.356;2023-06-04T01:25:05;2.73;;;2.20;;
1505;SDS011;744;51.436;7.356;2023-06-04T01:27:49;4.50;;;2.80;;
1505;SDS011;744;51.436;7.356;2023-06-04T01:30:23;5.10;;;3.30;;
1505;SDS011;744;51.436;7.356;2023-06-04T01:33:01;6.93;;;4.83;;
1505;SDS011;744;51.436;7.356;2023-06-04T01:35:29;2.90;;;2.70;;
1505;SDS011;744;51.436;7.356;2023-06-04T01:37:59;3.83;;;3.07;;
1505;SDS011;744;51.436;7.356;2023-06-04T01:40:26;4.23;;;2.67;;
1505;SDS011;744;51.436;7.356;2023-06-04T01:42:53;4.03;;;2.60;;
1505;SDS011;744;51.436;7.356;2023-06-04T01:45:21;3.40;;;2.80;;
1505;SDS011;744;51.436;7.356;2023-06-04T01:47:49;4.30;;;2.83;;
1505;SDS011;744;51.436;7.356;2023-06-04T01:50:16;5.97;;;2.43;;
1505;SDS011;744;51.436;7.356;2023-06-04T01:52:43;3.17;;;2.67;;
1505;SDS011;744;51.436;7.356;2023-06-04T01:55:11;9.30;;;4.53;;
1505;SDS011;744;51.436;7.356;2023-06-04T01:57:41;2.80;;;2.60;;
1505;SDS011;744;51.436;7.356;2023-06-04T02:00:10;3.07;;;2.77;;
1505;SDS011;744;51.436;7.356;2023-06-04T02:02:38;5.70;;;3.10;;
1505;SDS011;744;51.436;7.356;2023-06-04T02:05:10;5.50;;;3.57;;
1505;SDS011;744;51.436;7.356;2023-06-04T02:07:38;4.00;;;2.20;;
1505;SDS011;744;51.436;7.356;2023-06-04T02:10:09;4.07;;;2.77;;
1505;SDS011;744;51.436;7.356;2023-06-04T02:12:38;2.50;;;2.13;;
1505;SDS011;744;51.436;7.356;2023-06-04T02:15:10;4.13;;;2.33;;
1505;SDS011;744;51.436;7.356;2023-06-04T02:17:37;7.17;;;2.10;;
1505;SDS011;744;51.436;7.356;2023-06-04T02:20:06;2.50;;;2.07;;
1505;SDS011;744;51.436;7.356;2023-06-04T02:22:36;3.03;;;2.17;;
1505;SDS011;744;51.436;7.356;2023-06-04T02:25:04;4.37;;;1.70;;
1505;SDS011;744;51.436;7.356;2023-06-04T02:27:31;4.97;;;2.10;;
1505;SDS011;744;51.436;7.356;2023-06-04T02:29:58;5.50;;;4.40;;
1505;SDS011;744;51.436;7.356;2023-06-04T02:32:25;4.50;;;1.93;;
1505;SDS011;744;51.436;7.356;2023-06-04T02:34:52;2.97;;;1.80;;
1505;SDS011;744;51.436;7.356;2023-06-04T02:37:19;2.70;;;1.90;;
1505;SDS011;744;51.436;7.356;2023-06-04T02:39:46;2.37;;;2.17;;
1505;SDS011;744;51.436;7.356;2023-06-04T02:42:13;1.77;;;1.67;;
1505;SDS011;744;51.436;7.356;2023-06-04T02:44:39;3.67;;;2.10;;
1505;SDS011;744;51.436;7.356;2023-06-04T02:47:06;2.30;;;2.07;;
1505;SDS011;744;51.436;7.356;2023-06-04T02:49:33;3.40;;;1.80;;
1505;SDS011;744;51.436;7.356;2023-06-04T02:52:00;3.00;;;2.00;;
1505;SDS011;744;51.436;7.356;2023-06-04T02:54:27;1.70;;;1.60;;
1505;SDS011;744;51.436;7.356;2023-06-04T02:56:54;4.13;;;2.07;;
1505;SDS011;744;51.436;7.356;2023-06-04T02:59:21;2.07;;;1.87;;
1505;SDS011;744;51.436;7.356;2023-06-04T03:01:47;2.27;;;2.07;;
1505;SDS011;744;51.436;7.356;2023-06-04T03:04:14;2.17;;;1.97;;
1505;SDS011;744;51.436;7.356;2023-06-04T03:06:42;2.27;;;1.60;;
1505;SDS011;744;51.436;7.356;2023-06-04T03:09:12;3.00;;;1.80;;
1505;SDS011;744;51.436;7.356;2023-06-04T03:11:39;4.40;;;2.20;;
1505;SDS011;744;51.436;7.356;2023-06-04T03:14:06;2.20;;;1.70;;
1505;SDS011;744;51.436;7.356;2023-06-04T03:16:33;2.40;;;2.20;;
1505;SDS011;744;51.436;7.356;2023-06-04T03:19:00;4.27;;;2.90;;
1505;SDS011;744;51.436;7.356;2023-06-04T03:21:27;2.47;;;2.00;;
1505;SDS011;744;51.436;7.356;2023-06-04T03:23:55;2.80;;;2.40;;
1505;SDS011;744;51.436;7.356;2023-06-04T03:26:22;1.73;;;1.50;;
1505;SDS011;744;51.436;7.356;2023-06-04T03:28:49;2.60;;;2.03;;
1505;SDS011;744;51.436;7.356;2023-06-04T03:31:16;1.80;;;1.63;;
1505;SDS011;744;51.436;7.356;2023-06-04T03:33:43;4.07;;;2.07;;
1505;SDS011;744;51.436;7.356;2023-06-04T03:36:10;1.93;;;1.77;;
1505;SDS011;744;51.436;7.356;2023-06-04T03:38:37;2.80;;;1.90;;
1505;SDS011;744;51.436;7.356;2023-06-04T03:41:03;3.00;;;1.70;;
1505;SDS011;744;51.436;7.356;2023-06-04T03:43:31;2.23;;;2.03;;
1505;SDS011;744;51.436;7.356;2023-06-04T03:45:58;3.20;;;1.90;;
1505;SDS011;744;51.436;7.356;2023-06-04T03:48:24;2.17;;;2.00;;
1505;SDS011;744;51.436;7.356;2023-06-04T03:50:51;2.20;;;1.90;;
1505;SDS011;744;51.436;7.356;2023-06-04T03:53:18;2.30;;;2.10;;
1505;SDS011;744;51.436;7.356;2023-06-04T03:55:46;2.20;;;2.00;;
1505;SDS011;744;51.436;7.356;2023-06-04T03:58:12;2.13;;;1.80;;
1505;SDS011;744;51.436;7.356;2023-06-04T04:00:41;3.60;;;1.80;;
1505;SDS011;744;51.436;7.356;2023-06-04T04:03:07;2.70;;;1.93;;
1505;SDS011;744;51.436;7.356;2023-06-04T04:05:36;2.57;;;2.37;;
1505;SDS011;744;51.436;7.356;2023-06-04T04:08:03;2.10;;;1.70;;
1505;SDS011;744;51.436;7.356;2023-06-04T04:10:30;2.23;;;2.03;;
1505;SDS011;744;51.436;7.356;2023-06-04T04:12:57;3.47;;;2.00;;
1505;SDS011;744;51.436;7.356;2023-06-04T04:15:24;3.30;;;1.83;;
1505;SDS011;744;51.436;7.356;2023-06-04T04:17:51;1.90;;;1.63;;
1505;SDS011;744;51.436;7.356;2023-06-04T04:20:19;3.13;;;2.00;;
1505;SDS011;744;51.436;7.356;2023-06-04T04:22:46;1.60;;;1.50;;
1505;SDS011;744;51.436;7.356;2023-06-04T04:25:16;2.60;;;1.80;;
1505;SDS011;744;51.436;7.356;2023-06-04T04:27:43;2.00;;;1.80;;
1505;SDS011;744;51.436;7.356;2023-06-04T04:30:11;3.13;;;1.70;;
1505;SDS011;744;51.436;7.356;2023-06-04T04:32:38;2.00;;;1.80;;
1505;SDS011;744;51.436;7.356;2023-06-04T04:35:15;1.70;;;1.30;;
1505;SDS011;744;51.436;7.356;2023-06-04T04:37:44;2.10;;;1.90;;
1505;SDS011;744;51.436;7.356;2023-06-04T04:40:12;5.77;;;2.60;;
1505;SDS011;744;51.436;7.356;2023-06-04T04:42:40;3.23;;;2.43;;
1505;SDS011;744;51.436;7.356;2023-06-04T04:45:08;3.57;;;2.23;;
1505;SDS011;744;51.436;7.356;2023-06-04T04:47:35;2.10;;;1.90;;
1505;SDS011;744;51.436;7.356;2023-06-04T04:50:03;4.30;;;2.27;;
1505;SDS011;744;51.436;7.356;2023-06-04T04:52:30;2.03;;;1.83;;
1505;SDS011;744;51.436;7.356;2023-06-04T04:54:57;2.93;;;2.17;;
1505;SDS011;744;51.436;7.356;2023-06-04T04:57:24;2.87;;;1.87;;
1505;SDS011;744;51.436;7.356;2023-06-04T04:59:51;3.47;;;1.80;;
1505;SDS011;744;51.436;7.356;2023-06-04T05:02:18;2.87;;;2.03;;
1505;SDS011;744;51.436;7.356;2023-06-04T05:04:45;3.27;;;2.57;;
1505;SDS011;744;51.436;7.356;2023-06-04T05:07:11;2.50;;;1.87;;
1505;SDS011;744;51.436;7.356;2023-06-04T05:09:39;4.03;;;2.40;;
1505;SDS011;744;51.436;7.356;2023-06-04T05:12:06;2.00;;;1.70;;
1505;SDS011;744;51.436;7.356;2023-06-04T05:14:35;2.87;;;2.33;;
1505;SDS011;744;51.436;7.356;2023-06-04T05:17:03;2.30;;;1.70;;
1505;SDS011;744;51.436;7.356;2023-06-04T05:19:30;3.63;;;1.97;;
1505;SDS011;744;51.436;7.356;2023-06-04T05:21:59;2.13;;;1.93;;
1505;SDS011;744;51.436;7.356;2023-06-04T05:24:29;3.30;;;2.20;;
1505;SDS011;744;51.436;7.356;2023-06-04T05:26:58;2.90;;;1.80;;
1505;SDS011;744;51.436;7.356;2023-06-04T05:29:24;2.20;;;2.00;;
1505;SDS011;744;51.436;7.356;2023-06-04T05:31:52;2.43;;;2.23;;
1505;SDS011;744;51.436;7.356;2023-06-04T05:34:19;3.70;;;2.07;;
1505;SDS011;744;51.436;7.356;2023-06-04T05:36:47;4.40;;;2.00;;
1505;SDS011;744;51.436;7.356;2023-06-04T05:39:14;4.07;;;2.77;;
1505;SDS011;744;51.436;7.356;2023-06-04T05:41:42;8.00;;;2.60;;
1505;SDS011;744;51.436;7.356;2023-06-04T05:44:09;3.40;;;2.63;;
1505;SDS011;744;51.436;7.356;2023-06-04T05:46:36;2.50;;;1.87;;
1505;SDS011;744;51.436;7.356;2023-06-04T05:49:03;3.93;;;2.57;;
1505;SDS011;744;51.436;7.356;2023-06-04T05:51:30;2.10;;;1.90;;
1505;SDS011;744;51.436;7.356;2023-06-04T05:53:57;5.70;;;2.17;;
1505;SDS011;744;51.436;7.356;2023-06-04T05:56:24;3.13;;;2.30;;
1505;SDS011;744;51.436;7.356;2023-06-04T05:58:52;2.27;;;2.07;;
1505;SDS011;744;51.436;7.356;2023-06-04T06:01:19;3.00;;;2.50;;
1505;SDS011;744;51.436;7.356;2023-06-04T06:03:46;3.90;;;2.70;;
1505;SDS011;744;51.436;7.356;2023-06-04T06:06:13;2.77;;;2.17;;
1505;SDS011;744;51.436;7.356;2023-06-04T06:08:40;9.93;;;2.80;;
1505;SDS011;744;51.436;7.356;2023-06-04T06:11:07;5.60;;;2.70;;
1505;SDS011;744;51.436;7.356;2023-06-04T06:13:36;2.63;;;2.40;;
1505;SDS011;744;51.436;7.356;2023-06-04T06:16:03;2.50;;;2.30;;
1505;SDS011;744;51.436;7.356;2023-06-04T06:18:31;2.23;;;1.93;;
1505;SDS011;744;51.436;7.356;2023-06-04T06:20:58;2.87;;;2.60;;
1505;SDS011;744;51.436;7.356;2023-06-04T06:23:25;3.17;;;2.70;;
1505;SDS011;744;51.436;7.356;2023-06-04T06:25:52;3.67;;;2.40;;
1505;SDS011;744;51.436;7.356;2023-06-04T06:28:19;3.00;;;2.40;;
1505;SDS011;744;51.436;7.356;2023-06-04T06:30:46;4.50;;;2.70;;
1505;SDS011;744;51.436;7.356;2023-06-04T06:33:13;4.93;;;2.30;;
1505;SDS011;744;51.436;7.356;2023-06-04T06:35:40;2.60;;;2.37;;
1505;SDS011;744;51.436;7.356;2023-06-04T06:38:10;4.50;;;2.10;;
1505;SDS011;744;51.436;7.356;2023-06-04T06:40:37;4.97;;;2.80;;
1505;SDS011;744;51.436;7.356;2023-06-04T06:43:04;2.50;;;2.30;;
1505;SDS011;744;51.436;7.356;2023-06-04T06:45:31;8.17;;;2.17;;
1505;SDS011;744;51.436;7.356;2023-06-04T06:47:57;2.70;;;2.30;;
1505;SDS011;744;51.436;7.356;2023-06-04T06:50:24;2.73;;;2.43;;
1505;SDS011;744;51.436;7.356;2023-06-04T06:52:51;3.50;;;2.37;;
1505;SDS011;744;51.436;7.356;2023-06-04T06:55:18;2.40;;;2.20;;
1505;SDS011;744;51.436;7.356;2023-06-04T06:57:45;5.83;;;3.77;;
1505;SDS011;744;51.436;7.356;2023-06-04T07:00:12;2.27;;;2.07;;
1505;SDS011;744;51.436;7.356;2023-06-04T07:02:39;2.90;;;1.87;;
1505;SDS011;744;51.436;7.356;2023-06-04T07:05:06;2.73;;;2.53;;
1505;SDS011;744;51.436;7.356;2023-06-04T07:07:33;4.37;;;2.17;;
1505;SDS011;744;51.436;7.356;2023-06-04T07:10:00;2.97;;;2.27;;
1505;SDS011;744;51.436;7.356;2023-06-04T07:12:27;3.60;;;2.07;;
1505;SDS011;744;51.436;7.356;2023-06-04T07:14:54;5.43;;;2.00;;
1505;SDS011;744;51.436;7.356;2023-06-04T07:17:20;4.77;;;2.40;;
1505;SDS011;744;51.436;7.356;2023-06-04T07:19:48;5.20;;;2.10;;
1505;SDS011;744;51.436;7.356;2023-06-04T07:22:14;2.10;;;1.90;;
1505;SDS011;744;51.436;7.356;2023-06-04T07:24:44;3.37;;;2.00;;
1505;SDS011;744;51.436;7.356;2023-06-04T07:27:14;2.20;;;2.00;;
1505;SDS011;744;51.436;7.356;2023-06-04T07:29:42;1.87;;;1.60;;
1505;SDS011;744;51.436;7.356;2023-06-04T07:32:10;2.17;;;1.97;;
1505;SDS011;744;51.436;7.356;2023-06-04T07:34:38;5.33;;;2.00;;
1505;SDS011;744;51.436;7.356;2023-06-04T07:37:05;2.10;;;1.90;;
1505;SDS011;744;51.436;7.356;2023-06-04T07:39:32;2.40;;;1.67;;
1505;SDS011;744;51.436;7.356;2023-06-04T07:41:59;1.73;;;1.60;;
1505;SDS011;744;51.436;7.356;2023-06-04T07:44:26;2.80;;;1.67;;
1505;SDS011;744;51.436;7.356;2023-06-04T07:46:53;4.80;;;2.00;;
1505;SDS011;744;51.436;7.356;2023-06-04T07:49:19;5.77;;;3.07;;
1505;SDS011;744;51.436;7.356;2023-06-04T07:51:46;1.80;;;1.50;;
1505;SDS011;744;51.436;7.356;2023-06-04T07:54:13;2.50;;;1.53;;
1505;SDS011;744;51.436;7.356;2023-06-04T07:56:40;3.00;;;2.20;;
1505;SDS011;744;51.436;7.356;2023-06-04T07:59:08;7.13;;;1.97;;
1505;SDS011;744;51.436;7.356;2023-06-04T08:01:35;5.53;;;2.00;;
1505;SDS011;744;51.436;7.356;2023-06-04T08:04:02;2.37;;;2.17;;
1505;SDS011;744;51.436;7.356;2023-06-04T08:06:29;2.10;;;1.83;;
1505;SDS011;744;51.436;7.356;2023-06-04T08:08:56;5.10;;;2.83;;
1505;SDS011;744;51.436;7.356;2023-06-04T08:11:23;3.30;;;2.10;;
1505;SDS011;744;51.436;7.356;2023-06-04T08:13:50;2.00;;;1.80;;
1505;SDS011;744;51.436;7.356;2023-06-04T08:16:17;2.30;;;2.10;;
1505;SDS011;744;51.436;7.356;2023-06-04T08:18:44;4.47;;;2.50;;
1505;SDS011;744;51.436;7.356;2023-06-04T08:21:11;2.10;;;1.90;;
1505;SDS011;744;51.436;7.356;2023-06-04T08:23:38;3.20;;;1.90;;
1505;SDS011;744;51.436;7.356;2023-06-04T08:26:06;3.97;;;2.17;;
1505;SDS011;744;51.436;7.356;2023-06-04T08:28:34;4.50;;;1.83;;
1505;SDS011;744;51.436;7.356;2023-06-04T08:31:01;3.03;;;2.00;;
1505;SDS011;744;51.436;7.356;2023-06-04T08:33:28;5.50;;;2.20;;
1505;SDS011;744;51.436;7.356;2023-06-04T08:35:55;3.97;;;2.30;;
1505;SDS011;744;51.436;7.356;2023-06-04T08:38:22;1.93;;;1.83;;
1505;SDS011;744;51.436;7.356;2023-06-04T08:40:49;6.10;;;2.93;;
1505;SDS011;744;51.436;7.356;2023-06-04T08:43:18;3.17;;;2.87;;
1505;SDS011;744;51.436;7.356;2023-06-04T08:45:47;2.40;;;2.20;;
1505;SDS011;744;51.436;7.356;2023-06-04T08:48:16;3.83;;;2.67;;
1505;SDS011;744;51.436;7.356;2023-06-04T08:50:46;6.73;;;3.30;;
1505;SDS011;744;51.436;7.356;2023-06-04T08:53:15;3.33;;;2.60;;
1505;SDS011;744;51.436;7.356;2023-06-04T08:55:42;2.80;;;2.60;;
1505;SDS011;744;51.436;7.356;2023-06-04T08:58:10;2.83;;;2.20;;
1505;SDS011;744;51.436;7.356;2023-06-04T09:00:37;4.53;;;2.80;;
1505;SDS011;744;51.436;7.356;2023-06-04T09:03:05;3.63;;;3.23;;
1505;SDS011;744;51.436;7.356;2023-06-04T09:05:32;7.00;;;3.40;;
1505;SDS011;744;51.436;7.356;2023-06-04T09:08:01;6.63;;;3.60;;
1505;SDS011;744;51.436;7.356;2023-06-04T09:10:30;6.70;;;3.70;;
1505;SDS011;744;51.436;7.356;2023-06-04T09:13:01;8.87;;;5.03;;
1505;SDS011;744;51.436;7.356;2023-06-04T09:15:29;8.10;;;4.87;;
1505;SDS011;744;51.436;7.356;2023-06-04T09:17:56;4.10;;;3.70;;
1505;SDS011;744;51.436;7.356;2023-06-04T09:20:24;3.70;;;3.10;;
1505;SDS011;744;51.436;7.356;2023-06-04T09:22:51;4.03;;;3.60;;
1505;SDS011;744;51.436;7.356;2023-06-04T09:25:25;5.43;;;3.60;;
1505;SDS011;744;51.436;7.356;2023-06-04T09:27:53;4.10;;;3.70;;
1505;SDS011;744;51.436;7.356;2023-06-04T09:30:24;6.50;;;3.10;;
1505;SDS011;744;51.436;7.356;2023-06-04T09:32:52;3.63;;;3.33;;
1505;SDS011;744;51.436;7.356;2023-06-04T09:35:20;6.37;;;3.53;;
1505;SDS011;744;51.436;7.356;2023-06-04T09:37:56;4.70;;;3.03;;
1505;SDS011;744;51.436;7.356;2023-06-04T09:40:23;3.97;;;3.33;;
1505;SDS011;744;51.436;7.356;2023-06-04T09:42:51;3.10;;;2.60;;
1505;SDS011;744;51.436;7.356;2023-06-04T09:45:31;5.60;;;2.50;;
1505;SDS011;744;51.436;7.356;2023-06-04T09:48:02;3.63;;;3.13;;
1505;SDS011;744;51.436;7.356;2023-06-04T09:50:35;4.10;;;3.40;;
1505;SDS011;744;51.436;7.356;2023-06-04T09:55:42;3.00;;;2.67;;
1505;SDS011;744;51.436;7.356;2023-06-04T09:58:10;7.47;;;3.30;;
1505;SDS011;744;51.436;7.356;2023-06-04T10:00:38;4.43;;;3.27;;
1505;SDS011;744;51.436;7.356;2023-06-04T10:03:06;6.03;;;3.10;;
1505;SDS011;744;51.436;7.356;2023-06-04T10:05:40;2.10;;;1.80;;
1505;SDS011;744;51.436;7.356;2023-06-04T10:08:07;4.20;;;3.20;;
1505;SDS011;744;51.436;7.356;2023-06-04T10:10:35;3.70;;;2.60;;
1505;SDS011;744;51.436;7.356;2023-06-04T10:13:09;4.07;;;3.10;;
1505;SDS011;744;51.436;7.356;2023-06-04T10:15:43;3.60;;;2.80;;
1505;SDS011;744;51.436;7.356;2023-06-04T10:18:14;2.93;;;2.73;;
1505;SDS011;744;51.436;7.356;2023-06-04T10:20:42;3.70;;;2.60;;
1505;SDS011;744;51.436;7.356;2023-06-04T10:23:10;2.20;;;2.00;;
1505;SDS011;744;51.436;7.356;2023-06-04T10:25:38;3.20;;;2.20;;
1505;SDS011;744;51.436;7.356;2023-06-04T10:28:05;3.07;;;2.20;;
1505;SDS011;744;51.436;7.356;2023-06-04T10:30:32;2.40;;;2.00;;
1505;SDS011;744;51.436;7.356;2023-06-04T10:32:59;2.77;;;2.23;;
1505;SDS011;744;51.436;7.356;2023-06-04T10:35:33;2.60;;;2.40;;
1505;SDS011;744;51.436;7.356;2023-06-04T10:38:07;5.57;;;2.33;;
1505;SDS011;744;51.436;7.356;2023-06-04T10:40:36;3.83;;;2.40;;
1505;SDS011;744;51.436;7.356;2023-06-04T10:43:07;8.93;;;2.77;;
1505;SDS011;744;51.436;7.356;2023-06-04T10:45:35;3.67;;;2.33;;
1505;SDS011;744;51.436;7.356;2023-06-04T10:48:03;4.33;;;2.60;;
1505;SDS011;744;51.436;7.356;2023-06-04T10:50:31;2.80;;;2.40;;
1505;SDS011;744;51.436;7.356;2023-06-04T10:52:59;4.20;;;2.30;;
1505;SDS011;744;51.436;7.356;2023-06-04T10:55:30;4.73;;;2.33;;
1505;SDS011;744;51.436;7.356;2023-06-04T10:57:58;3.20;;;2.77;;
1505;SDS011;744;51.436;7.356;2023-06-04T11:00:36;4.30;;;2.50;;
1505;SDS011;744;51.436;7.356;2023-06-04T11:03:04;5.13;;;2.50;;
1505;SDS011;744;51.436;7.356;2023-06-04T11:08:12;3.00;;;2.20;;
1505;SDS011;744;51.436;7.356;2023-06-04T11:10:41;12.57;;;4.60;;
1505;SDS011;744;51.436;7.356;2023-06-04T11:13:09;2.40;;;2.20;;
1505;SDS011;744;51.436;7.356;2023-06-04T11:18:17;5.73;;;2.27;;
1505;SDS011;744;51.436;7.356;2023-06-04T11:20:46;3.70;;;2.60;;
1505;SDS011;744;51.436;7.356;2023-06-04T11:23:14;2.70;;;2.03;;
1505;SDS011;744;51.436;7.356;2023-06-04T11:25:42;4.10;;;2.00;;
1505;SDS011;744;51.436;7.356;2023-06-04T11:28:16;1.70;;;1.60;;
1505;SDS011;744;51.436;7.356;2023-06-04T11:31:00;3.60;;;1.63;;
1505;SDS011;744;51.436;7.356;2023-06-04T11:33:29;1.73;;;1.50;;
1505;SDS011;744;51.436;7.356;2023-06-04T11:35:57;3.27;;;2.17;;
1505;SDS011;744;51.436;7.356;2023-06-04T11:38:23;3.70;;;1.47;;
1505;SDS011;744;51.436;7.356;2023-06-04T11:40:57;3.90;;;1.70;;
1505;SDS011;744;51.436;7.356;2023-06-04T11:43:25;2.47;;;2.13;;
1505;SDS011;744;51.436;7.356;2023-06-04T11:45:53;3.40;;;1.70;;
1505;SDS011;744;51.436;7.356;2023-06-04T11:48:20;2.73;;;2.10;;
1505;SDS011;744;51.436;7.356;2023-06-04T11:50:47;1.90;;;1.80;;
1505;SDS011;744;51.436;7.356;2023-06-04T11:53:14;4.43;;;2.00;;
1505;SDS011;744;51.436;7.356;2023-06-04T11:55:42;4.50;;;1.90;;
1505;SDS011;744;51.436;7.356;2023-06-04T11:58:09;2.40;;;2.20;;
1505;SDS011;744;51.436;7.356;2023-06-04T12:00:36;4.00;;;2.13;;
1505;SDS011;744;51.436;7.356;2023-06-04T12:03:04;2.77;;;2.00;;
1505;SDS011;744;51.436;7.356;2023-06-04T12:05:31;4.33;;;1.80;;
1505;SDS011;744;51.436;7.356;2023-06-04T12:08:05;1.77;;;1.63;;
1505;SDS011;744;51.436;7.356;2023-06-04T12:10:37;3.40;;;1.93;;
1505;SDS011;744;51.436;7.356;2023-06-04T12:13:08;2.10;;;1.70;;
1505;SDS011;744;51.436;7.356;2023-06-04T12:15:35;3.93;;;2.07;;
1505;SDS011;744;51.436;7.356;2023-06-04T12:18:02;2.00;;;1.73;;
1505;SDS011;744;51.436;7.356;2023-06-04T12:20:33;1.83;;;1.73;;
1505;SDS011;744;51.436;7.356;2023-06-04T12:23:04;2.83;;;1.70;;
1505;SDS011;744;51.436;7.356;2023-06-04T12:25:32;2.70;;;1.50;;
1505;SDS011;744;51.436;7.356;2023-06-04T12:28:01;4.03;;;1.90;;
1505;SDS011;744;51.436;7.356;2023-06-04T12:30:40;1.43;;;1.33;;
1505;SDS011;744;51.436;7.356;2023-06-04T12:33:07;4.30;;;1.37;;
1505;SDS011;744;51.436;7.356;2023-06-04T12:35:36;6.23;;;2.00;;
1505;SDS011;744;51.436;7.356;2023-06-04T12:38:03;3.90;;;1.73;;
1505;SDS011;744;51.436;7.356;2023-06-04T12:40:35;4.20;;;1.90;;
1505;SDS011;744;51.436;7.356;2023-06-04T12:43:02;2.50;;;1.60;;
1505;SDS011;744;51.436;7.356;2023-06-04T12:45:31;1.60;;;1.50;;
1505;SDS011;744;51.436;7.356;2023-06-04T12:47:57;2.43;;;1.60;;
1505;SDS011;744;51.436;7.356;2023-06-04T12:50:24;1.57;;;1.30;;
1505;SDS011;744;51.436;7.356;2023-06-04T12:52:51;2.07;;;1.87;;
1505;SDS011;744;51.436;7.356;2023-06-04T12:55:18;4.13;;;1.80;;
1505;SDS011;744;51.436;7.356;2023-06-04T12:57:45;3.10;;;1.60;;
1505;SDS011;744;51.436;7.356;2023-06-04T13:00:12;3.77;;;1.60;;
1505;SDS011;744;51.436;7.356;2023-06-04T13:02:42;2.40;;;1.90;;
1505;SDS011;744;51.436;7.356;2023-06-04T13:05:09;1.73;;;1.50;;
1505;SDS011;744;51.436;7.356;2023-06-04T13:07:36;1.40;;;1.30;;
1505;SDS011;744;51.436;7.356;2023-06-04T13:10:03;11.30;;;1.73;;
1505;SDS011;744;51.436;7.356;2023-06-04T13:12:30;3.27;;;1.83;;
1505;SDS011;744;51.436;7.356;2023-06-04T13:14:57;2.20;;;1.60;;
1505;SDS011;744;51.436;7.356;2023-06-04T13:17:24;3.27;;;1.37;;
1505;SDS011;744;51.436;7.356;2023-06-04T13:19:51;2.07;;;1.67;;
1505;SDS011;744;51.436;7.356;2023-06-04T13:22:18;6.33;;;2.43;;
1505;SDS011;744;51.436;7.356;2023-06-04T13:24:45;1.50;;;1.40;;
1505;SDS011;744;51.436;7.356;2023-06-04T13:27:12;5.40;;;1.50;;
1505;SDS011;744;51.436;7.356;2023-06-04T13:29:39;2.70;;;1.50;;
1505;SDS011;744;51.436;7.356;2023-06-04T13:32:09;3.50;;;1.17;;
1505;SDS011;744;51.436;7.356;2023-06-04T13:34:37;1.70;;;1.40;;
1505;SDS011;744;51.436;7.356;2023-06-04T13:37:04;5.30;;;1.53;;
1505;SDS011;744;51.436;7.356;2023-06-04T13:39:32;1.90;;;1.53;;
1505;SDS011;744;51.436;7.356;2023-06-04T13:41:59;1.90;;;1.80;;
1505;SDS011;744;51.436;7.356;2023-06-04T13:44:26;2.60;;;1.40;;
1505;SDS011;744;51.436;7.356;2023-06-04T13:46:54;8.23;;;1.87;;
1505;SDS011;744;51.436;7.356;2023-06-04T13:49:21;1.60;;;1.50;;
1505;SDS011;744;51.436;7.356;2023-06-04T13:51:48;1.30;;;1.20;;
1505;SDS011;744;51.436;7.356;2023-06-04T13:54:15;3.00;;;1.80;;
1505;SDS011;744;51.436;7.356;2023-06-04T13:56:43;1.73;;;1.23;;
1505;SDS011;744;51.436;7.356;2023-06-04T13:59:10;2.53;;;1.63;;
1505;SDS011;744;51.436;7.356;2023-06-04T14:01:37;1.83;;;1.30;;
1505;SDS011;744;51.436;7.356;2023-06-04T14:04:04;1.53;;;1.40;;
1505;SDS011;744;51.436;7.356;2023-06-04T14:06:33;1.60;;;1.33;;
1505;SDS011;744;51.436;7.356;2023-06-04T14:09:02;1.33;;;1.20;;
1505;SDS011;744;51.436;7.356;2023-06-04T14:11:30;2.57;;;1.50;;
1505;SDS011;744;51.436;7.356;2023-06-04T14:13:58;2.30;;;1.40;;
1505;SDS011;744;51.436;7.356;2023-06-04T14:16:25;3.33;;;1.80;;
1505;SDS011;744;51.436;7.356;2023-06-04T14:18:52;2.00;;;1.47;;
1505;SDS011;744;51.436;7.356;2023-06-04T14:21:19;1.90;;;1.43;;
1505;SDS011;744;51.436;7.356;2023-06-04T14:23:47;2.50;;;1.47;;
1505;SDS011;744;51.436;7.356;2023-06-04T14:26:15;3.33;;;1.83;;
1505;SDS011;744;51.436;7.356;2023-06-04T14:28:44;3.97;;;1.90;;
1505;SDS011;744;51.436;7.356;2023-06-04T14:31:11;4.03;;;1.50;;
1505;SDS011;744;51.436;7.356;2023-06-04T14:33:38;1.60;;;1.50;;
1505;SDS011;744;51.436;7.356;2023-06-04T14:36:05;2.07;;;1.97;;
1505;SDS011;744;51.436;7.356;2023-06-04T14:38:32;4.23;;;1.80;;
1505;SDS011;744;51.436;7.356;2023-06-04T14:40:59;1.80;;;1.70;;
1505;SDS011;744;51.436;7.356;2023-06-04T14:43:26;2.70;;;2.03;;
1505;SDS011;744;51.436;7.356;2023-06-04T14:45:53;2.10;;;1.67;;
1505;SDS011;744;51.436;7.356;2023-06-04T14:48:19;1.87;;;1.67;;
1505;SDS011;744;51.436;7.356;2023-06-04T14:50:46;2.80;;;1.50;;
1505;SDS011;744;51.436;7.356;2023-06-04T14:53:13;3.57;;;1.67;;
1505;SDS011;744;51.436;7.356;2023-06-04T14:55:40;1.50;;;1.40;;
1505;SDS011;744;51.436;7.356;2023-06-04T14:58:07;2.50;;;1.80;;
1505;SDS011;744;51.436;7.356;2023-06-04T15:00:34;4.60;;;2.33;;
1505;SDS011;744;51.436;7.356;2023-06-04T15:03:01;2.60;;;1.73;;
1505;SDS011;744;51.436;7.356;2023-06-04T15:05:30;1.40;;;1.30;;
1505;SDS011;744;51.436;7.356;2023-06-04T15:07:58;2.17;;;1.70;;
1505;SDS011;744;51.436;7.356;2023-06-04T15:10:25;1.53;;;1.43;;
1505;SDS011;744;51.436;7.356;2023-06-04T15:12:53;4.50;;;1.93;;
1505;SDS011;744;51.436;7.356;2023-06-04T15:15:20;1.80;;;1.70;;
1505;SDS011;744;51.436;7.356;2023-06-04T15:17:47;2.40;;;2.20;;
1505;SDS011;744;51.436;7.356;2023-06-04T15:20:15;2.67;;;2.40;;
1505;SDS011;744;51.436;7.356;2023-06-04T15:22:42;2.53;;;1.40;;
1505;SDS011;744;51.436;7.356;2023-06-04T15:25:09;4.57;;;2.00;;
1505;SDS011;744;51.436;7.356;2023-06-04T15:27:36;5.83;;;5.20;;
1505;SDS011;744;51.436;7.356;2023-06-04T15:30:05;3.50;;;3.30;;
1505;SDS011;744;51.436;7.356;2023-06-04T15:32:32;2.63;;;1.90;;
1505;SDS011;744;51.436;7.356;2023-06-04T15:35:00;4.00;;;2.30;;
1505;SDS011;744;51.436;7.356;2023-06-04T15:37:28;6.07;;;2.20;;
1505;SDS011;744;51.436;7.356;2023-06-04T15:39:55;2.30;;;2.10;;
1505;SDS011;744;51.436;7.356;2023-06-04T15:42:24;3.40;;;2.30;;
1505;SDS011;744;51.436;7.356;2023-06-04T15:44:50;7.73;;;2.43;;
1505;SDS011;744;51.436;7.356;2023-06-04T15:47:17;2.30;;;2.10;;